sensor_id;sensor_type;location;lat;lon;timestamp;P1;durP1;ratioP1;P2;durP2;ratioP2
9970;SDS011;5026;51.494;11.974;2022-10-17T00:00:52;5.47;;;4.15;;
9970;SDS011;5026;51.494;11.974;2022-10-17T00:03:19;5.78;;;3.95;;
9970;SDS011;5026;51.494;11.974;2022-10-17T00:05:46;7.18;;;3.95;;
9970;SDS011;5026;51.494;11.974;2022-10-17T00:08:14;5.18;;;3.92;;
9970;SDS011;5026;51.494;11.974;2022-10-17T00:10:42;8.05;;;4.15;;
9970;SDS011;5026;51.494;11.974;2022-10-17T00:13:09;4.90;;;4.22;;
9970;SDS011;5026;51.494;11.974;2022-10-17T00:15:36;4.45;;;4.05;;
9970;SDS011;5026;51.494;11.974;2022-10-17T00:18:04;6.03;;;4.53;;
9970;SDS011;5026;51.494;11.974;2022-10-17T00:20:33;8.68;;;4.50;;
9970;SDS011;5026;51.494;11.974;2022-10-17T00:23:00;6.68;;;4.45;;
9970;SDS011;5026;51.494;11.974;2022-10-17T00:25:27;7.70;;;4.50;;
9970;SDS011;5026;51.494;11.974;2022-10-17T00:27:55;6.30;;;4.60;;
9970;SDS011;5026;51.494;11.974;2022-10-17T00:30:22;4.45;;;4.05;;
9970;SDS011;5026;51.494;11.974;2022-10-17T00:32:48;5.97;;;4.28;;
9970;SDS011;5026;51.494;11.974;2022-10-17T00:35:17;8.80;;;4.22;;
9970;SDS011;5026;51.494;11.974;2022-10-17T00:37:43;6.00;;;4.00;;
9970;SDS011;5026;51.494;11.974;2022-10-17T00:40:11;6.95;;;4.30;;
9970;SDS011;5026;51.494;11.974;2022-10-17T00:42:38;5.47;;;4.93;;
9970;SDS011;5026;51.494;11.974;2022-10-17T00:45:09;5.05;;;4.43;;
9970;SDS011;5026;51.494;11.974;2022-10-17T00:47:43;6.38;;;4.32;;
9970;SDS011;5026;51.494;11.974;2022-10-17T00:50:15;4.47;;;3.80;;
9970;SDS011;5026;51.494;11.974;2022-10-17T00:52:44;6.35;;;4.28;;
9970;SDS011;5026;51.494;11.974;2022-10-17T00:55:15;5.72;;;4.53;;
9970;SDS011;5026;51.494;11.974;2022-10-17T00:57:44;7.47;;;4.65;;
9970;SDS011;5026;51.494;11.974;2022-10-17T01:00:13;9.82;;;4.85;;
9970;SDS011;5026;51.494;11.974;2022-10-17T01:02:41;6.93;;;5.25;;
9970;SDS011;5026;51.494;11.974;2022-10-17T01:05:08;6.00;;;5.40;;
9970;SDS011;5026;51.494;11.974;2022-10-17T01:07:38;7.88;;;5.90;;
9970;SDS011;5026;51.494;11.974;2022-10-17T01:10:06;7.22;;;5.45;;
9970;SDS011;5026;51.494;11.974;2022-10-17T01:12:38;7.75;;;5.75;;
9970;SDS011;5026;51.494;11.974;2022-10-17T01:15:18;8.45;;;6.03;;
9970;SDS011;5026;51.494;11.974;2022-10-17T01:18:00;8.35;;;5.70;;
9970;SDS011;5026;51.494;11.974;2022-10-17T01:23:45;7.57;;;5.72;;
9970;SDS011;5026;51.494;11.974;2022-10-17T01:26:40;8.50;;;6.20;;
9970;SDS011;5026;51.494;11.974;2022-10-17T01:32:06;9.23;;;4.93;;
9970;SDS011;5026;51.494;11.974;2022-10-17T01:34:40;5.22;;;4.72;;
9970;SDS011;5026;51.494;11.974;2022-10-17T01:37:13;9.25;;;5.50;;
9970;SDS011;5026;51.494;11.974;2022-10-17T01:39:45;8.90;;;5.03;;
9970;SDS011;5026;51.494;11.974;2022-10-17T01:42:16;5.50;;;4.75;;
9970;SDS011;5026;51.494;11.974;2022-10-17T01:44:48;7.93;;;5.95;;
9970;SDS011;5026;51.494;11.974;2022-10-17T01:47:21;5.70;;;4.60;;
9970;SDS011;5026;51.494;11.974;2022-10-17T01:49:50;5.82;;;4.80;;
9970;SDS011;5026;51.494;11.974;2022-10-17T01:52:21;11.85;;;4.95;;
9970;SDS011;5026;51.494;11.974;2022-10-17T01:54:51;6.40;;;5.55;;
9970;SDS011;5026;51.494;11.974;2022-10-17T01:57:22;6.95;;;4.05;;
9970;SDS011;5026;51.494;11.974;2022-10-17T01:59:52;7.28;;;4.10;;
9970;SDS011;5026;51.494;11.974;2022-10-17T02:02:23;6.60;;;4.65;;
9970;SDS011;5026;51.494;11.974;2022-10-17T02:04:51;6.45;;;4.68;;
9970;SDS011;5026;51.494;11.974;2022-10-17T02:07:20;4.63;;;3.97;;
9970;SDS011;5026;51.494;11.974;2022-10-17T02:09:47;5.75;;;4.28;;
9970;SDS011;5026;51.494;11.974;2022-10-17T02:12:30;7.47;;;4.00;;
9970;SDS011;5026;51.494;11.974;2022-10-17T02:15:07;7.95;;;4.63;;
9970;SDS011;5026;51.494;11.974;2022-10-17T02:17:48;4.93;;;4.25;;
9970;SDS011;5026;51.494;11.974;2022-10-17T02:20:23;4.65;;;3.65;;
9970;SDS011;5026;51.494;11.974;2022-10-17T02:22:53;6.40;;;4.45;;
9970;SDS011;5026;51.494;11.974;2022-10-17T02:25:28;7.30;;;4.32;;
9970;SDS011;5026;51.494;11.974;2022-10-17T02:28:05;7.63;;;3.88;;
9970;SDS011;5026;51.494;11.974;2022-10-17T02:30:39;5.43;;;4.25;;
9970;SDS011;5026;51.494;11.974;2022-10-17T02:33:12;6.03;;;4.15;;
9970;SDS011;5026;51.494;11.974;2022-10-17T02:35:44;5.43;;;3.85;;
9970;SDS011;5026;51.494;11.974;2022-10-17T02:38:15;5.35;;;3.70;;
9970;SDS011;5026;51.494;11.974;2022-10-17T02:40:42;5.45;;;3.83;;
9970;SDS011;5026;51.494;11.974;2022-10-17T02:43:11;6.15;;;3.80;;
9970;SDS011;5026;51.494;11.974;2022-10-17T02:45:39;6.13;;;3.67;;
9970;SDS011;5026;51.494;11.974;2022-10-17T02:48:07;5.25;;;4.10;;
9970;SDS011;5026;51.494;11.974;2022-10-17T02:50:44;7.55;;;3.90;;
9970;SDS011;5026;51.494;11.974;2022-10-17T02:53:19;8.05;;;4.15;;
9970;SDS011;5026;51.494;11.974;2022-10-17T02:55:54;5.72;;;4.05;;
9970;SDS011;5026;51.494;11.974;2022-10-17T02:58:27;4.68;;;3.63;;
9970;SDS011;5026;51.494;11.974;2022-10-17T03:00:57;6.20;;;3.92;;
9970;SDS011;5026;51.494;11.974;2022-10-17T03:03:26;6.53;;;3.70;;
9970;SDS011;5026;51.494;11.974;2022-10-17T03:05:55;6.25;;;3.63;;
9970;SDS011;5026;51.494;11.974;2022-10-17T03:08:22;3.75;;;3.35;;
9970;SDS011;5026;51.494;11.974;2022-10-17T03:10:50;7.45;;;3.72;;
9970;SDS011;5026;51.494;11.974;2022-10-17T03:13:17;4.20;;;3.30;;
9970;SDS011;5026;51.494;11.974;2022-10-17T03:15:44;3.10;;;2.85;;
9970;SDS011;5026;51.494;11.974;2022-10-17T03:18:10;4.65;;;3.50;;
9970;SDS011;5026;51.494;11.974;2022-10-17T03:20:38;3.47;;;3.15;;
9970;SDS011;5026;51.494;11.974;2022-10-17T03:23:06;5.03;;;3.75;;
9970;SDS011;5026;51.494;11.974;2022-10-17T03:25:33;7.20;;;3.67;;
9970;SDS011;5026;51.494;11.974;2022-10-17T03:28:00;4.32;;;3.22;;
9970;SDS011;5026;51.494;11.974;2022-10-17T03:30:29;6.47;;;3.90;;
9970;SDS011;5026;51.494;11.974;2022-10-17T03:32:56;5.55;;;3.58;;
9970;SDS011;5026;51.494;11.974;2022-10-17T03:35:24;4.47;;;3.47;;
9970;SDS011;5026;51.494;11.974;2022-10-17T03:37:51;3.60;;;3.30;;
9970;SDS011;5026;51.494;11.974;2022-10-17T03:40:21;5.82;;;4.10;;
9970;SDS011;5026;51.494;11.974;2022-10-17T03:42:48;4.47;;;4.00;;
9970;SDS011;5026;51.494;11.974;2022-10-17T03:45:15;5.05;;;3.97;;
9970;SDS011;5026;51.494;11.974;2022-10-17T03:47:42;5.78;;;3.83;;
9970;SDS011;5026;51.494;11.974;2022-10-17T03:50:09;4.38;;;3.42;;
9970;SDS011;5026;51.494;11.974;2022-10-17T03:52:36;7.22;;;3.90;;
9970;SDS011;5026;51.494;11.974;2022-10-17T03:55:03;5.20;;;3.63;;
9970;SDS011;5026;51.494;11.974;2022-10-17T03:57:32;10.77;;;4.00;;
9970;SDS011;5026;51.494;11.974;2022-10-17T04:00:01;6.00;;;4.30;;
9970;SDS011;5026;51.494;11.974;2022-10-17T04:02:28;4.82;;;4.13;;
9970;SDS011;5026;51.494;11.974;2022-10-17T04:04:54;8.02;;;4.10;;
9970;SDS011;5026;51.494;11.974;2022-10-17T04:07:22;6.30;;;3.95;;
9970;SDS011;5026;51.494;11.974;2022-10-17T04:09:48;4.65;;;4.00;;
9970;SDS011;5026;51.494;11.974;2022-10-17T04:12:15;7.70;;;3.78;;
9970;SDS011;5026;51.494;11.974;2022-10-17T04:14:44;6.25;;;4.13;;
9970;SDS011;5026;51.494;11.974;2022-10-17T04:17:10;5.38;;;4.30;;
9970;SDS011;5026;51.494;11.974;2022-10-17T04:19:37;6.90;;;4.43;;
9970;SDS011;5026;51.494;11.974;2022-10-17T04:22:04;7.78;;;4.07;;
9970;SDS011;5026;51.494;11.974;2022-10-17T04:24:32;5.68;;;4.07;;
9970;SDS011;5026;51.494;11.974;2022-10-17T04:26:59;3.85;;;3.55;;
9970;SDS011;5026;51.494;11.974;2022-10-17T04:29:26;4.20;;;3.55;;
9970;SDS011;5026;51.494;11.974;2022-10-17T04:31:55;5.68;;;3.80;;
9970;SDS011;5026;51.494;11.974;2022-10-17T04:34:21;9.27;;;4.40;;
9970;SDS011;5026;51.494;11.974;2022-10-17T04:36:48;5.53;;;4.13;;
9970;SDS011;5026;51.494;11.974;2022-10-17T04:39:16;11.18;;;4.70;;
9970;SDS011;5026;51.494;11.974;2022-10-17T04:41:42;4.18;;;3.45;;
9970;SDS011;5026;51.494;11.974;2022-10-17T04:44:10;5.70;;;4.00;;
9970;SDS011;5026;51.494;11.974;2022-10-17T04:46:37;4.63;;;4.20;;
9970;SDS011;5026;51.494;11.974;2022-10-17T04:49:05;6.70;;;3.60;;
9970;SDS011;5026;51.494;11.974;2022-10-17T04:51:33;10.38;;;3.97;;
9970;SDS011;5026;51.494;11.974;2022-10-17T04:54:00;4.32;;;3.92;;
9970;SDS011;5026;51.494;11.974;2022-10-17T04:56:27;6.47;;;4.10;;
9970;SDS011;5026;51.494;11.974;2022-10-17T04:58:54;7.75;;;4.28;;
9970;SDS011;5026;51.494;11.974;2022-10-17T05:01:21;6.97;;;4.53;;
9970;SDS011;5026;51.494;11.974;2022-10-17T05:03:49;8.65;;;4.38;;
9970;SDS011;5026;51.494;11.974;2022-10-17T05:06:19;4.85;;;4.18;;
9970;SDS011;5026;51.494;11.974;2022-10-17T05:08:47;5.45;;;4.35;;
9970;SDS011;5026;51.494;11.974;2022-10-17T05:11:15;7.53;;;4.65;;
9970;SDS011;5026;51.494;11.974;2022-10-17T05:13:43;9.75;;;4.45;;
9970;SDS011;5026;51.494;11.974;2022-10-17T05:16:10;6.15;;;3.90;;
9970;SDS011;5026;51.494;11.974;2022-10-17T05:18:37;5.68;;;4.25;;
9970;SDS011;5026;51.494;11.974;2022-10-17T05:21:04;4.95;;;4.20;;
9970;SDS011;5026;51.494;11.974;2022-10-17T05:23:33;5.35;;;4.20;;
9970;SDS011;5026;51.494;11.974;2022-10-17T05:26:00;6.63;;;4.18;;
9970;SDS011;5026;51.494;11.974;2022-10-17T05:28:27;8.52;;;4.38;;
9970;SDS011;5026;51.494;11.974;2022-10-17T05:30:54;5.47;;;4.65;;
9970;SDS011;5026;51.494;11.974;2022-10-17T05:33:21;6.85;;;4.07;;
9970;SDS011;5026;51.494;11.974;2022-10-17T05:35:48;6.20;;;4.07;;
9970;SDS011;5026;51.494;11.974;2022-10-17T05:38:15;5.35;;;4.40;;
9970;SDS011;5026;51.494;11.974;2022-10-17T05:40:44;8.32;;;4.32;;
9970;SDS011;5026;51.494;11.974;2022-10-17T05:43:10;6.97;;;4.85;;
9970;SDS011;5026;51.494;11.974;2022-10-17T05:45:38;5.85;;;4.57;;
9970;SDS011;5026;51.494;11.974;2022-10-17T05:48:06;8.73;;;4.90;;
9970;SDS011;5026;51.494;11.974;2022-10-17T05:50:34;6.75;;;5.43;;
9970;SDS011;5026;51.494;11.974;2022-10-17T05:53:01;7.82;;;5.47;;
9970;SDS011;5026;51.494;11.974;2022-10-17T05:55:28;9.50;;;5.07;;
9970;SDS011;5026;51.494;11.974;2022-10-17T05:57:58;5.40;;;4.60;;
9970;SDS011;5026;51.494;11.974;2022-10-17T06:00:25;7.43;;;4.20;;
9970;SDS011;5026;51.494;11.974;2022-10-17T06:02:52;6.20;;;4.40;;
9970;SDS011;5026;51.494;11.974;2022-10-17T06:05:19;6.43;;;4.53;;
9970;SDS011;5026;51.494;11.974;2022-10-17T06:07:47;7.82;;;5.15;;
9970;SDS011;5026;51.494;11.974;2022-10-17T06:10:16;5.93;;;5.03;;
9970;SDS011;5026;51.494;11.974;2022-10-17T06:12:44;7.47;;;4.75;;
9970;SDS011;5026;51.494;11.974;2022-10-17T06:15:12;5.78;;;4.63;;
9970;SDS011;5026;51.494;11.974;2022-10-17T06:17:39;7.10;;;4.65;;
9970;SDS011;5026;51.494;11.974;2022-10-17T06:20:07;7.50;;;5.10;;
9970;SDS011;5026;51.494;11.974;2022-10-17T06:22:34;6.28;;;3.92;;
9970;SDS011;5026;51.494;11.974;2022-10-17T06:25:01;8.50;;;4.70;;
9970;SDS011;5026;51.494;11.974;2022-10-17T06:27:28;7.30;;;4.18;;
9970;SDS011;5026;51.494;11.974;2022-10-17T06:29:55;6.25;;;4.13;;
9970;SDS011;5026;51.494;11.974;2022-10-17T06:32:23;10.25;;;5.05;;
9970;SDS011;5026;51.494;11.974;2022-10-17T06:34:50;5.97;;;4.15;;
9970;SDS011;5026;51.494;11.974;2022-10-17T06:37:17;4.53;;;3.92;;
9970;SDS011;5026;51.494;11.974;2022-10-17T06:39:44;5.25;;;4.38;;
9970;SDS011;5026;51.494;11.974;2022-10-17T06:42:11;6.93;;;4.05;;
9970;SDS011;5026;51.494;11.974;2022-10-17T06:44:38;5.13;;;4.10;;
9970;SDS011;5026;51.494;11.974;2022-10-17T06:47:05;6.43;;;4.70;;
9970;SDS011;5026;51.494;11.974;2022-10-17T06:49:33;8.10;;;4.15;;
9970;SDS011;5026;51.494;11.974;2022-10-17T06:52:00;6.85;;;5.03;;
9970;SDS011;5026;51.494;11.974;2022-10-17T06:54:27;6.80;;;5.10;;
9970;SDS011;5026;51.494;11.974;2022-10-17T06:56:54;6.93;;;4.60;;
9970;SDS011;5026;51.494;11.974;2022-10-17T06:59:21;5.97;;;4.32;;
9970;SDS011;5026;51.494;11.974;2022-10-17T07:01:48;6.32;;;3.33;;
9970;SDS011;5026;51.494;11.974;2022-10-17T07:04:15;4.07;;;3.53;;
9970;SDS011;5026;51.494;11.974;2022-10-17T07:06:43;6.68;;;3.45;;
9970;SDS011;5026;51.494;11.974;2022-10-17T07:09:10;3.78;;;3.42;;
9970;SDS011;5026;51.494;11.974;2022-10-17T07:11:37;5.78;;;3.80;;
9970;SDS011;5026;51.494;11.974;2022-10-17T07:14:05;6.63;;;3.70;;
9970;SDS011;5026;51.494;11.974;2022-10-17T07:16:32;4.70;;;3.17;;
9970;SDS011;5026;51.494;11.974;2022-10-17T07:18:59;5.78;;;3.42;;
9970;SDS011;5026;51.494;11.974;2022-10-17T07:21:26;5.88;;;3.67;;
9970;SDS011;5026;51.494;11.974;2022-10-17T07:23:54;3.60;;;3.08;;
9970;SDS011;5026;51.494;11.974;2022-10-17T07:26:21;6.05;;;3.17;;
9970;SDS011;5026;51.494;11.974;2022-10-17T07:28:50;7.13;;;3.40;;
9970;SDS011;5026;51.494;11.974;2022-10-17T07:31:19;4.82;;;3.50;;
9970;SDS011;5026;51.494;11.974;2022-10-17T07:33:47;3.95;;;2.85;;
9970;SDS011;5026;51.494;11.974;2022-10-17T07:36:14;6.28;;;3.08;;
9970;SDS011;5026;51.494;11.974;2022-10-17T07:38:42;9.68;;;3.30;;
9970;SDS011;5026;51.494;11.974;2022-10-17T07:41:10;4.95;;;3.38;;
9970;SDS011;5026;51.494;11.974;2022-10-17T07:43:38;8.02;;;3.50;;
9970;SDS011;5026;51.494;11.974;2022-10-17T07:46:07;5.55;;;2.90;;
9970;SDS011;5026;51.494;11.974;2022-10-17T07:48:35;2.83;;;2.55;;
9970;SDS011;5026;51.494;11.974;2022-10-17T07:51:03;6.22;;;2.72;;
9970;SDS011;5026;51.494;11.974;2022-10-17T07:53:34;3.50;;;2.92;;
9970;SDS011;5026;51.494;11.974;2022-10-17T07:56:02;3.78;;;3.15;;
9970;SDS011;5026;51.494;11.974;2022-10-17T07:58:32;7.10;;;3.00;;
9970;SDS011;5026;51.494;11.974;2022-10-17T08:01:00;6.93;;;2.90;;
9970;SDS011;5026;51.494;11.974;2022-10-17T08:03:27;4.15;;;2.95;;
9970;SDS011;5026;51.494;11.974;2022-10-17T08:05:57;4.18;;;2.97;;
9970;SDS011;5026;51.494;11.974;2022-10-17T08:08:25;5.38;;;2.45;;
9970;SDS011;5026;51.494;11.974;2022-10-17T08:10:54;7.13;;;3.30;;
9970;SDS011;5026;51.494;11.974;2022-10-17T08:13:26;4.35;;;2.78;;
9970;SDS011;5026;51.494;11.974;2022-10-17T08:15:57;8.98;;;3.05;;
9970;SDS011;5026;51.494;11.974;2022-10-17T08:18:24;6.53;;;2.88;;
9970;SDS011;5026;51.494;11.974;2022-10-17T08:20:51;4.63;;;2.80;;
9970;SDS011;5026;51.494;11.974;2022-10-17T08:23:18;6.90;;;3.13;;
9970;SDS011;5026;51.494;11.974;2022-10-17T08:25:45;2.33;;;2.13;;
9970;SDS011;5026;51.494;11.974;2022-10-17T08:28:12;4.88;;;2.70;;
9970;SDS011;5026;51.494;11.974;2022-10-17T08:30:39;5.95;;;2.70;;
9970;SDS011;5026;51.494;11.974;2022-10-17T08:33:07;2.72;;;2.10;;
9970;SDS011;5026;51.494;11.974;2022-10-17T08:35:34;5.80;;;2.45;;
9970;SDS011;5026;51.494;11.974;2022-10-17T08:38:01;2.88;;;2.67;;
9970;SDS011;5026;51.494;11.974;2022-10-17T08:40:29;4.22;;;2.60;;
9970;SDS011;5026;51.494;11.974;2022-10-17T08:45:51;4.00;;;2.42;;
9970;SDS011;5026;51.494;11.974;2022-10-17T08:48:26;3.20;;;2.50;;
9970;SDS011;5026;51.494;11.974;2022-10-17T08:50:55;5.55;;;2.50;;
9970;SDS011;5026;51.494;11.974;2022-10-17T08:53:27;7.47;;;2.50;;
9970;SDS011;5026;51.494;11.974;2022-10-17T08:55:58;5.00;;;2.22;;
9970;SDS011;5026;51.494;11.974;2022-10-17T08:58:31;6.35;;;2.72;;
9970;SDS011;5026;51.494;11.974;2022-10-17T09:01:02;2.95;;;2.55;;
9970;SDS011;5026;51.494;11.974;2022-10-17T09:03:47;2.17;;;1.98;;
9970;SDS011;5026;51.494;11.974;2022-10-17T09:06:24;7.47;;;2.28;;
9970;SDS011;5026;51.494;11.974;2022-10-17T09:09:02;2.38;;;1.95;;
9970;SDS011;5026;51.494;11.974;2022-10-17T09:11:44;3.60;;;2.30;;
9970;SDS011;5026;51.494;11.974;2022-10-17T09:14:23;3.88;;;2.20;;
9970;SDS011;5026;51.494;11.974;2022-10-17T09:17:00;4.53;;;2.15;;
9970;SDS011;5026;51.494;11.974;2022-10-17T09:19:39;6.63;;;2.65;;
9970;SDS011;5026;51.494;11.974;2022-10-17T09:22:12;3.00;;;1.98;;
9970;SDS011;5026;51.494;11.974;2022-10-17T09:24:44;3.33;;;2.42;;
9970;SDS011;5026;51.494;11.974;2022-10-17T09:27:17;3.17;;;2.13;;
9970;SDS011;5026;51.494;11.974;2022-10-17T09:29:49;3.03;;;2.35;;
9970;SDS011;5026;51.494;11.974;2022-10-17T09:32:21;2.40;;;2.20;;
9970;SDS011;5026;51.494;11.974;2022-10-17T09:34:51;7.60;;;2.13;;
9970;SDS011;5026;51.494;11.974;2022-10-17T09:37:18;4.75;;;2.45;;
9970;SDS011;5026;51.494;11.974;2022-10-17T09:39:51;3.05;;;2.67;;
9970;SDS011;5026;51.494;11.974;2022-10-17T09:42:18;4.55;;;2.20;;
9970;SDS011;5026;51.494;11.974;2022-10-17T09:44:49;2.88;;;2.30;;
9970;SDS011;5026;51.494;11.974;2022-10-17T09:47:23;4.90;;;1.88;;
9970;SDS011;5026;51.494;11.974;2022-10-17T09:50:01;7.70;;;2.25;;
9970;SDS011;5026;51.494;11.974;2022-10-17T09:52:29;7.75;;;2.83;;
9970;SDS011;5026;51.494;11.974;2022-10-17T09:55:00;2.33;;;2.13;;
9970;SDS011;5026;51.494;11.974;2022-10-17T09:57:49;3.25;;;2.72;;
9970;SDS011;5026;51.494;11.974;2022-10-17T10:00:19;7.93;;;3.20;;
9970;SDS011;5026;51.494;11.974;2022-10-17T10:02:47;7.03;;;2.75;;
9970;SDS011;5026;51.494;11.974;2022-10-17T10:05:17;3.40;;;2.80;;
9970;SDS011;5026;51.494;11.974;2022-10-17T10:08:01;2.60;;;2.40;;
9970;SDS011;5026;51.494;11.974;2022-10-17T10:10:30;2.97;;;2.67;;
9970;SDS011;5026;51.494;11.974;2022-10-17T10:13:02;5.22;;;2.40;;
9970;SDS011;5026;51.494;11.974;2022-10-17T10:15:35;5.03;;;2.63;;
9970;SDS011;5026;51.494;11.974;2022-10-17T10:21:05;6.75;;;2.70;;
9970;SDS011;5026;51.494;11.974;2022-10-17T10:23:35;6.45;;;2.17;;
9970;SDS011;5026;51.494;11.974;2022-10-17T10:26:05;4.35;;;2.58;;
9970;SDS011;5026;51.494;11.974;2022-10-17T10:28:51;3.72;;;2.08;;
9970;SDS011;5026;51.494;11.974;2022-10-17T10:31:31;2.38;;;2.00;;
9970;SDS011;5026;51.494;11.974;2022-10-17T10:34:02;3.42;;;2.42;;
9970;SDS011;5026;51.494;11.974;2022-10-17T10:36:47;2.90;;;2.60;;
9970;SDS011;5026;51.494;11.974;2022-10-17T10:39:30;5.18;;;2.47;;
9970;SDS011;5026;51.494;11.974;2022-10-17T10:42:05;4.43;;;2.47;;
9970;SDS011;5026;51.494;11.974;2022-10-17T10:44:37;8.13;;;2.47;;
9970;SDS011;5026;51.494;11.974;2022-10-17T10:47:17;5.22;;;2.45;;
9970;SDS011;5026;51.494;11.974;2022-10-17T10:49:46;5.35;;;2.22;;
9970;SDS011;5026;51.494;11.974;2022-10-17T10:52:19;6.05;;;2.50;;
9970;SDS011;5026;51.494;11.974;2022-10-17T10:54:55;4.25;;;2.35;;
9970;SDS011;5026;51.494;11.974;2022-10-17T10:57:29;3.50;;;2.30;;
9970;SDS011;5026;51.494;11.974;2022-10-17T11:00:02;3.40;;;2.10;;
9970;SDS011;5026;51.494;11.974;2022-10-17T11:02:37;3.05;;;2.40;;
9970;SDS011;5026;51.494;11.974;2022-10-17T11:05:11;3.95;;;2.10;;
9970;SDS011;5026;51.494;11.974;2022-10-17T11:07:45;3.58;;;2.00;;
9970;SDS011;5026;51.494;11.974;2022-10-17T11:10:21;4.38;;;2.35;;
9970;SDS011;5026;51.494;11.974;2022-10-17T11:12:53;3.45;;;2.00;;
9970;SDS011;5026;51.494;11.974;2022-10-17T11:15:23;4.13;;;2.08;;
9970;SDS011;5026;51.494;11.974;2022-10-17T11:17:56;4.45;;;2.08;;
9970;SDS011;5026;51.494;11.974;2022-10-17T11:20:28;4.68;;;2.00;;
9970;SDS011;5026;51.494;11.974;2022-10-17T11:23:08;3.72;;;2.38;;
9970;SDS011;5026;51.494;11.974;2022-10-17T11:25:43;2.50;;;2.30;;
9970;SDS011;5026;51.494;11.974;2022-10-17T11:28:13;4.72;;;2.67;;
9970;SDS011;5026;51.494;11.974;2022-10-17T11:30:43;3.72;;;2.47;;
9970;SDS011;5026;51.494;11.974;2022-10-17T11:33:14;3.67;;;2.20;;
9970;SDS011;5026;51.494;11.974;2022-10-17T11:35:46;8.18;;;2.63;;
9970;SDS011;5026;51.494;11.974;2022-10-17T11:38:17;4.32;;;2.35;;
9970;SDS011;5026;51.494;11.974;2022-10-17T11:40:50;6.38;;;2.42;;
9970;SDS011;5026;51.494;11.974;2022-10-17T11:43:21;6.47;;;2.20;;
9970;SDS011;5026;51.494;11.974;2022-10-17T11:45:54;2.15;;;1.95;;
9970;SDS011;5026;51.494;11.974;2022-10-17T11:48:25;2.95;;;2.00;;
9970;SDS011;5026;51.494;11.974;2022-10-17T11:51:00;2.70;;;2.40;;
9970;SDS011;5026;51.494;11.974;2022-10-17T11:53:40;2.78;;;2.25;;
9970;SDS011;5026;51.494;11.974;2022-10-17T11:56:11;3.08;;;2.28;;
9970;SDS011;5026;51.494;11.974;2022-10-17T11:58:44;4.32;;;2.00;;
9970;SDS011;5026;51.494;11.974;2022-10-17T12:01:16;8.32;;;2.70;;
9970;SDS011;5026;51.494;11.974;2022-10-17T12:03:51;5.43;;;2.28;;
9970;SDS011;5026;51.494;11.974;2022-10-17T12:06:36;6.25;;;2.38;;
9970;SDS011;5026;51.494;11.974;2022-10-17T12:09:16;9.25;;;2.22;;
9970;SDS011;5026;51.494;11.974;2022-10-17T12:11:50;2.85;;;2.10;;
9970;SDS011;5026;51.494;11.974;2022-10-17T12:14:34;3.53;;;2.20;;
9970;SDS011;5026;51.494;11.974;2022-10-17T12:17:19;5.45;;;2.20;;
9970;SDS011;5026;51.494;11.974;2022-10-17T12:19:53;6.50;;;2.13;;
9970;SDS011;5026;51.494;11.974;2022-10-17T12:22:56;2.92;;;2.20;;
9970;SDS011;5026;51.494;11.974;2022-10-17T12:25:27;3.38;;;1.90;;
9970;SDS011;5026;51.494;11.974;2022-10-17T12:30:53;5.70;;;2.17;;
9970;SDS011;5026;51.494;11.974;2022-10-17T12:33:24;5.93;;;2.30;;
9970;SDS011;5026;51.494;11.974;2022-10-17T12:54:37;2.88;;;1.90;;
9970;SDS011;5026;51.494;11.974;2022-10-17T12:57:12;7.45;;;1.95;;
9970;SDS011;5026;51.494;11.974;2022-10-17T12:59:43;3.95;;;1.92;;
9970;SDS011;5026;51.494;11.974;2022-10-17T13:02:13;1.73;;;1.63;;
9970;SDS011;5026;51.494;11.974;2022-10-17T13:04:44;2.72;;;1.70;;
9970;SDS011;5026;51.494;11.974;2022-10-17T13:07:14;3.53;;;1.70;;
9970;SDS011;5026;51.494;11.974;2022-10-17T13:09:45;3.60;;;1.73;;
9970;SDS011;5026;51.494;11.974;2022-10-17T13:12:13;3.78;;;1.88;;
9970;SDS011;5026;51.494;11.974;2022-10-17T13:14:50;5.47;;;1.77;;
9970;SDS011;5026;51.494;11.974;2022-10-17T13:17:22;5.75;;;2.00;;
9970;SDS011;5026;51.494;11.974;2022-10-17T13:19:51;3.80;;;1.80;;
9970;SDS011;5026;51.494;11.974;2022-10-17T13:22:20;2.50;;;1.67;;
9970;SDS011;5026;51.494;11.974;2022-10-17T13:24:50;2.70;;;1.50;;
9970;SDS011;5026;51.494;11.974;2022-10-17T13:27:22;5.80;;;1.90;;
9970;SDS011;5026;51.494;11.974;2022-10-17T13:29:54;2.50;;;1.92;;
9970;SDS011;5026;51.494;11.974;2022-10-17T13:32:22;1.85;;;1.70;;
9970;SDS011;5026;51.494;11.974;2022-10-17T13:35:05;6.82;;;1.73;;
9970;SDS011;5026;51.494;11.974;2022-10-17T13:37:34;2.72;;;1.70;;
9970;SDS011;5026;51.494;11.974;2022-10-17T13:40:02;3.22;;;2.00;;
9970;SDS011;5026;51.494;11.974;2022-10-17T13:42:30;3.50;;;1.90;;
9970;SDS011;5026;51.494;11.974;2022-10-17T13:45:05;2.83;;;1.85;;
9970;SDS011;5026;51.494;11.974;2022-10-17T13:47:41;3.15;;;1.55;;
9970;SDS011;5026;51.494;11.974;2022-10-17T13:50:12;2.75;;;1.48;;
9970;SDS011;5026;51.494;11.974;2022-10-17T13:52:48;3.08;;;1.65;;
9970;SDS011;5026;51.494;11.974;2022-10-17T13:55:30;5.25;;;2.53;;
9970;SDS011;5026;51.494;11.974;2022-10-17T13:58:07;7.47;;;1.80;;
9970;SDS011;5026;51.494;11.974;2022-10-17T14:00:36;2.85;;;2.05;;
9970;SDS011;5026;51.494;11.974;2022-10-17T14:03:04;3.72;;;2.22;;
9970;SDS011;5026;51.494;11.974;2022-10-17T14:05:31;5.75;;;1.77;;
9970;SDS011;5026;51.494;11.974;2022-10-17T14:07:59;5.90;;;2.55;;
9970;SDS011;5026;51.494;11.974;2022-10-17T14:10:30;4.80;;;1.73;;
9970;SDS011;5026;51.494;11.974;2022-10-17T14:12:59;4.45;;;2.30;;
9970;SDS011;5026;51.494;11.974;2022-10-17T14:15:29;6.00;;;2.28;;
9970;SDS011;5026;51.494;11.974;2022-10-17T14:17:58;3.40;;;1.90;;
9970;SDS011;5026;51.494;11.974;2022-10-17T14:20:30;4.00;;;1.85;;
9970;SDS011;5026;51.494;11.974;2022-10-17T14:22:59;3.75;;;1.92;;
9970;SDS011;5026;51.494;11.974;2022-10-17T14:25:27;4.75;;;2.10;;
9970;SDS011;5026;51.494;11.974;2022-10-17T14:27:56;6.95;;;2.38;;
9970;SDS011;5026;51.494;11.974;2022-10-17T14:30:33;5.60;;;2.53;;
9970;SDS011;5026;51.494;11.974;2022-10-17T14:33:02;7.32;;;2.17;;
9970;SDS011;5026;51.494;11.974;2022-10-17T14:35:32;4.00;;;1.92;;
9970;SDS011;5026;51.494;11.974;2022-10-17T14:38:00;3.83;;;2.00;;
9970;SDS011;5026;51.494;11.974;2022-10-17T14:40:29;7.13;;;2.25;;
9970;SDS011;5026;51.494;11.974;2022-10-17T14:42:58;4.07;;;2.13;;
9970;SDS011;5026;51.494;11.974;2022-10-17T14:45:29;4.03;;;1.75;;
9970;SDS011;5026;51.494;11.974;2022-10-17T14:48:00;4.25;;;2.28;;
9970;SDS011;5026;51.494;11.974;2022-10-17T14:50:32;6.68;;;1.88;;
9970;SDS011;5026;51.494;11.974;2022-10-17T14:53:01;4.85;;;1.95;;
9970;SDS011;5026;51.494;11.974;2022-10-17T14:55:30;3.45;;;1.98;;
9970;SDS011;5026;51.494;11.974;2022-10-17T14:57:58;3.38;;;1.90;;
9970;SDS011;5026;51.494;11.974;2022-10-17T15:00:26;8.77;;;2.38;;
9970;SDS011;5026;51.494;11.974;2022-10-17T15:02:54;5.32;;;2.53;;
9970;SDS011;5026;51.494;11.974;2022-10-17T15:05:22;3.42;;;2.08;;
9970;SDS011;5026;51.494;11.974;2022-10-17T15:07:49;6.05;;;2.30;;
9970;SDS011;5026;51.494;11.974;2022-10-17T15:10:22;3.80;;;2.00;;
9970;SDS011;5026;51.494;11.974;2022-10-17T15:12:56;6.38;;;1.90;;
9970;SDS011;5026;51.494;11.974;2022-10-17T15:15:25;2.30;;;2.10;;
9970;SDS011;5026;51.494;11.974;2022-10-17T15:17:52;6.03;;;2.33;;
9970;SDS011;5026;51.494;11.974;2022-10-17T15:20:19;6.32;;;2.30;;
9970;SDS011;5026;51.494;11.974;2022-10-17T15:22:51;5.60;;;2.50;;
9970;SDS011;5026;51.494;11.974;2022-10-17T15:25:18;4.78;;;2.22;;
9970;SDS011;5026;51.494;11.974;2022-10-17T15:27:45;3.28;;;2.60;;
9970;SDS011;5026;51.494;11.974;2022-10-17T15:30:15;7.68;;;2.40;;
9970;SDS011;5026;51.494;11.974;2022-10-17T15:32:44;3.75;;;2.47;;
9970;SDS011;5026;51.494;11.974;2022-10-17T15:35:11;7.53;;;2.10;;
9970;SDS011;5026;51.494;11.974;2022-10-17T15:37:38;5.75;;;2.38;;
9970;SDS011;5026;51.494;11.974;2022-10-17T15:40:09;4.07;;;2.28;;
9970;SDS011;5026;51.494;11.974;2022-10-17T15:42:40;6.07;;;2.30;;
9970;SDS011;5026;51.494;11.974;2022-10-17T15:45:08;5.82;;;2.30;;
9970;SDS011;5026;51.494;11.974;2022-10-17T15:47:36;6.15;;;2.20;;
9970;SDS011;5026;51.494;11.974;2022-10-17T15:50:03;2.88;;;2.20;;
9970;SDS011;5026;51.494;11.974;2022-10-17T15:52:33;5.70;;;2.70;;